ドバイ の空港の天気 - METARとTAF

ドバイ国際空港 ( OMDB / DXB ) - アラブ首長国連邦 ドバイ
飛行場実況気象(Metar)
観測時間04/25 06:00 GST (04/25 02:00 UTC)
風向・風速南南西 3m/s
視程10km以上
天気現象
なし
気温21℃
湿度69%
気圧1013hPa
METAROMDB 250200Z 20006KT 160V230 CAVOK 21/15 Q1013 NOSIG
過去の天気等 Google飛行場航空写真 Wunderground天気予報

過去48時間のMETAR

飛行場予報(TAF)
発表時間: 4/25 03:00 GST (4/24 23:00 UTC)
予報対象時間: 25日4時 GST ~ 26日10時 GST
風向・風速西 6m/s
視程10km以上
なし
25日4時 GST から 確率 30% で
風向・風速南西 3m/s
25日22時 GST ~ 25日24時 GST に徐々に
風向・風速南 3m/s
TAF OMDB 242300Z 2500/2606 28012KT CAVOK
PROB30 2500/2504 22005KT
BECMG 2518/2520 18005KT